createdAt,value
2023-01-12T00:02:12.272Z,4.88
2023-01-12T00:04:40.496Z,7.70
2023-01-12T00:07:09.749Z,5.50
2023-01-12T00:09:37.836Z,7.22
2023-01-12T00:12:07.235Z,3.67
2023-01-12T00:14:35.772Z,3.90
2023-01-12T00:17:04.177Z,2.35
2023-01-12T00:19:33.974Z,4.10
2023-01-12T00:22:08.707Z,3.63
2023-01-12T00:24:38.120Z,3.85
2023-01-12T00:27:07.265Z,3.22
2023-01-12T00:29:36.104Z,6.25
2023-01-12T00:32:05.342Z,3.97
2023-01-12T00:34:34.990Z,4.03
2023-01-12T00:37:02.880Z,4.93
2023-01-12T00:39:30.768Z,6.18
2023-01-12T00:42:16.133Z,3.30
2023-01-12T00:45:01.263Z,5.32
2023-01-12T00:47:29.128Z,5.13
2023-01-12T00:49:58.238Z,5.03
2023-01-12T00:52:30.693Z,5.05
2023-01-12T00:54:59.852Z,5.07
2023-01-12T00:57:28.131Z,3.83
2023-01-12T00:59:58.136Z,4.53
2023-01-12T01:02:26.716Z,4.65
2023-01-12T01:04:54.492Z,5.05
2023-01-12T01:07:23.994Z,4.70
2023-01-12T01:09:52.251Z,4.68
2023-01-12T01:12:20.325Z,3.00
2023-01-12T01:14:48.972Z,3.53
2023-01-12T01:17:16.828Z,3.97
2023-01-12T01:19:44.688Z,5.00
2023-01-12T01:22:13.403Z,4.82
2023-01-12T01:24:43.168Z,4.07
2023-01-12T01:27:10.972Z,4.93
2023-01-12T01:29:38.773Z,3.53
2023-01-12T01:32:06.812Z,3.10
2023-01-12T01:34:35.661Z,3.45
2023-01-12T01:37:03.755Z,5.40
2023-01-12T01:39:31.511Z,3.10
2023-01-12T01:42:01.093Z,5.47
2023-01-12T01:44:53.155Z,3.53
2023-01-12T01:47:27.524Z,2.97
2023-01-12T01:50:00.202Z,4.22
2023-01-12T01:52:32.215Z,4.05
2023-01-12T01:55:04.149Z,5.03
2023-01-12T01:57:40.460Z,4.30
2023-01-12T02:00:11.628Z,5.25
2023-01-12T02:02:40.331Z,4.63
2023-01-12T02:05:08.927Z,6.15
2023-01-12T02:07:37.183Z,3.70
2023-01-12T02:10:05.519Z,4.10
2023-01-12T02:12:52.231Z,4.90
2023-01-12T02:15:37.714Z,4.82
2023-01-12T02:18:12.988Z,5.97
2023-01-12T02:20:56.257Z,4.00
2023-01-12T02:23:50.388Z,5.30
2023-01-12T02:26:49.704Z,4.47
2023-01-12T02:29:56.221Z,5.93
2023-01-12T02:32:33.794Z,6.43
2023-01-12T02:35:13.040Z,5.90
2023-01-12T02:37:46.278Z,6.57
2023-01-12T02:40:22.737Z,6.22
2023-01-12T02:43:00.241Z,3.10
2023-01-12T02:45:35.734Z,5.38
2023-01-12T02:48:16.326Z,5.15
2023-01-12T02:50:52.273Z,4.55
2023-01-12T02:53:25.422Z,6.15
2023-01-12T02:55:54.196Z,4.05
2023-01-12T02:58:24.545Z,4.30
2023-01-12T03:00:56.078Z,5.15
2023-01-12T03:03:26.722Z,3.92
2023-01-12T03:05:56.865Z,3.25
2023-01-12T03:08:28.638Z,6.18
2023-01-12T03:11:13.164Z,6.00
2023-01-12T03:13:44.390Z,5.22
2023-01-12T03:16:14.793Z,4.65
2023-01-12T03:18:51.548Z,5.25
2023-01-12T03:21:26.933Z,5.90
2023-01-12T03:23:58.217Z,6.50
2023-01-12T03:26:28.489Z,6.00
2023-01-12T03:29:03.204Z,4.20
2023-01-12T03:31:34.330Z,5.00
2023-01-12T03:34:04.360Z,4.47
2023-01-12T03:36:44.109Z,5.55
2023-01-12T03:39:17.921Z,4.03
2023-01-12T03:41:57.530Z,6.60
2023-01-12T03:44:32.728Z,4.10
2023-01-12T03:47:04.953Z,5.43
2023-01-12T03:49:41.313Z,4.57
2023-01-12T03:52:11.764Z,5.25
2023-01-12T03:54:41.201Z,5.20
2023-01-12T03:57:12.083Z,5.88
2023-01-12T03:59:40.996Z,6.05
2023-01-12T04:02:09.872Z,5.70
2023-01-12T04:04:39.054Z,4.43
2023-01-12T04:07:06.896Z,4.00
2023-01-12T04:09:34.674Z,3.58
2023-01-12T04:12:11.521Z,3.08
2023-01-12T04:14:40.557Z,3.33
2023-01-12T04:17:09.407Z,4.53
2023-01-12T04:19:37.358Z,4.38
2023-01-12T04:22:24.039Z,3.47
2023-01-12T04:24:51.925Z,4.13
2023-01-12T04:27:19.877Z,4.68
2023-01-12T04:29:47.714Z,3.50
2023-01-12T04:32:15.613Z,5.18
2023-01-12T04:34:43.432Z,3.35
2023-01-12T04:37:12.608Z,3.60
2023-01-12T04:39:40.511Z,5.30
2023-01-12T04:42:28.926Z,3.53
2023-01-12T04:44:56.785Z,5.60
2023-01-12T04:47:24.638Z,3.70
2023-01-12T04:49:52.426Z,4.57
2023-01-12T04:52:21.562Z,4.13
2023-01-12T04:54:49.367Z,3.72
2023-01-12T04:57:17.171Z,4.40
2023-01-12T04:59:45.044Z,4.90
2023-01-12T05:02:12.849Z,5.43
2023-01-12T05:04:40.808Z,4.47
2023-01-12T05:07:08.594Z,3.10
2023-01-12T05:09:55.357Z,3.42
2023-01-12T05:12:23.395Z,3.10
2023-01-12T05:14:51.568Z,2.55
2023-01-12T05:17:19.586Z,1.90
2023-01-12T05:19:49.331Z,3.05
2023-01-12T05:22:18.463Z,3.22
2023-01-12T05:24:48.128Z,3.70
2023-01-12T05:27:15.970Z,3.47
2023-01-12T05:29:43.726Z,3.15
2023-01-12T05:32:11.546Z,2.40
2023-01-12T05:34:39.344Z,2.85
2023-01-12T05:37:07.130Z,2.10
2023-01-12T05:39:34.891Z,2.83
2023-01-12T05:42:21.388Z,2.65
2023-01-12T05:44:49.234Z,3.13
2023-01-12T05:47:16.985Z,3.08
2023-01-12T05:49:44.866Z,3.00
2023-01-12T05:52:12.602Z,3.42
2023-01-12T05:54:40.390Z,2.15
2023-01-12T05:57:09.563Z,2.70
2023-01-12T05:59:37.396Z,2.58
2023-01-12T06:02:05.177Z,2.30
2023-01-12T06:04:33.103Z,2.58
2023-01-12T06:07:02.047Z,1.58
2023-01-12T06:09:29.923Z,2.42
2023-01-12T06:12:23.729Z,2.08
2023-01-12T06:14:52.941Z,2.72
2023-01-12T06:17:21.216Z,1.48
2023-01-12T06:19:49.201Z,2.17
2023-01-12T06:22:18.624Z,3.13
2023-01-12T06:24:49.095Z,1.73
2023-01-12T06:27:17.788Z,4.07
2023-01-12T06:29:45.778Z,2.15
2023-01-12T06:32:14.916Z,1.45
2023-01-12T06:34:42.683Z,1.98
2023-01-12T06:37:13.051Z,2.28
2023-01-12T06:39:41.024Z,2.70
2023-01-12T06:42:26.184Z,2.67
2023-01-12T06:44:54.079Z,3.08
2023-01-12T06:47:23.768Z,3.22
2023-01-12T06:49:52.094Z,2.38
2023-01-12T06:52:20.997Z,2.67
2023-01-12T06:54:48.914Z,3.60
2023-01-12T06:57:16.760Z,4.47
2023-01-12T06:59:44.925Z,4.65
2023-01-12T07:02:14.411Z,3.28
2023-01-12T07:04:44.027Z,2.05
2023-01-12T07:07:12.603Z,4.32
2023-01-12T07:09:40.622Z,4.50
2023-01-12T07:12:09.250Z,4.22
2023-01-12T07:14:37.262Z,5.15
2023-01-12T07:17:05.105Z,3.80
2023-01-12T07:19:32.979Z,4.80
2023-01-12T07:22:02.384Z,3.15
2023-01-12T07:24:30.230Z,4.00
2023-01-12T07:26:59.513Z,4.32
2023-01-12T07:29:27.287Z,2.83
2023-01-12T07:31:55.131Z,2.30
2023-01-12T07:34:23.089Z,2.47
2023-01-12T07:36:51.413Z,2.35
2023-01-12T07:39:20.764Z,3.75
2023-01-12T07:42:06.053Z,3.60
2023-01-12T07:44:33.823Z,2.53
2023-01-12T07:47:01.593Z,3.42
2023-01-12T07:49:29.421Z,3.33
2023-01-12T07:51:57.333Z,3.53
2023-01-12T07:54:26.497Z,3.08
2023-01-12T07:56:54.269Z,4.90
2023-01-12T07:59:22.150Z,3.72
2023-01-12T08:01:51.481Z,2.40
2023-01-12T08:04:21.082Z,3.45
2023-01-12T08:06:49.269Z,2.10
2023-01-12T08:09:17.080Z,2.50
2023-01-12T08:11:46.214Z,2.38
2023-01-12T08:14:25.011Z,4.07
2023-01-12T08:16:54.461Z,2.30
2023-01-12T08:19:25.728Z,1.50
2023-01-12T08:21:58.796Z,2.08
2023-01-12T08:24:31.367Z,3.53
2023-01-12T08:27:03.939Z,1.98
2023-01-12T08:29:41.066Z,1.35
2023-01-12T08:32:13.126Z,1.75
2023-01-12T08:34:43.260Z,2.00
2023-01-12T08:37:13.850Z,1.58
2023-01-12T08:39:41.956Z,2.38
2023-01-12T08:42:11.263Z,1.50
2023-01-12T08:44:39.038Z,2.78
2023-01-12T08:47:15.469Z,2.60
2023-01-12T08:49:43.855Z,3.13
2023-01-12T08:52:11.690Z,3.30
2023-01-12T08:54:39.707Z,1.42
2023-01-12T08:57:07.480Z,1.75
2023-01-12T08:59:36.824Z,1.88
2023-01-12T09:02:04.840Z,1.17
2023-01-12T09:04:32.821Z,1.98
2023-01-12T09:07:00.834Z,3.17
2023-01-12T09:09:28.754Z,1.23
2023-01-12T09:11:56.906Z,1.83
2023-01-12T09:14:25.417Z,1.45
2023-01-12T09:16:56.891Z,2.42
2023-01-12T09:19:24.823Z,0.80
2023-01-12T09:21:52.680Z,3.22
2023-01-12T09:24:20.702Z,1.85
2023-01-12T09:26:48.515Z,3.13
2023-01-12T09:29:16.519Z,1.35
2023-01-12T09:31:46.068Z,3.00
2023-01-12T09:34:15.596Z,1.33
2023-01-12T09:36:44.684Z,1.85
2023-01-12T09:39:26.869Z,1.65
2023-01-12T09:42:13.517Z,2.00
2023-01-12T09:45:01.507Z,1.35
2023-01-12T09:47:36.117Z,2.03
2023-01-12T09:50:11.233Z,2.97
2023-01-12T09:52:43.435Z,2.13
2023-01-12T09:55:16.981Z,2.78
2023-01-12T09:58:11.298Z,2.33
2023-01-12T10:00:39.284Z,1.92
2023-01-12T10:03:14.690Z,1.23
2023-01-12T10:05:48.980Z,3.38
2023-01-12T10:08:19.797Z,4.28
2023-01-12T10:11:02.196Z,2.40
2023-01-12T10:13:42.892Z,1.90
2023-01-12T10:16:17.760Z,2.50
2023-01-12T10:18:48.648Z,2.15
2023-01-12T10:21:17.929Z,2.10
2023-01-12T10:23:45.796Z,1.52
2023-01-12T10:26:21.976Z,2.67
2023-01-12T10:28:52.305Z,1.77
2023-01-12T10:31:24.502Z,1.85
2023-01-12T10:34:06.923Z,1.95
2023-01-12T10:36:43.194Z,1.67
2023-01-12T10:39:29.779Z,2.17
2023-01-12T10:42:31.262Z,1.10
2023-01-12T10:45:13.676Z,1.90
2023-01-12T10:47:42.909Z,0.90
2023-01-12T10:50:25.668Z,1.20
2023-01-12T10:53:01.188Z,4.15
2023-01-12T10:55:35.877Z,0.98
2023-01-12T10:58:04.739Z,1.40
2023-01-12T11:00:34.175Z,3.53
2023-01-12T11:03:02.308Z,1.20
2023-01-12T11:05:34.198Z,1.90
2023-01-12T11:08:03.741Z,2.88
2023-01-12T11:10:33.202Z,2.13
2023-01-12T11:13:03.590Z,2.38
2023-01-12T11:15:35.628Z,1.23
2023-01-12T11:18:29.989Z,1.20
2023-01-12T11:21:02.978Z,1.90
2023-01-12T11:26:09.689Z,2.10
2023-01-12T11:28:43.549Z,1.33
2023-01-12T11:31:17.682Z,1.75
2023-01-12T11:33:50.517Z,1.02
2023-01-12T11:38:52.510Z,2.85
2023-01-12T11:41:25.419Z,1.35
2023-01-12T11:44:03.085Z,2.42
2023-01-12T11:46:37.514Z,3.05
2023-01-12T11:49:15.721Z,1.83
2023-01-12T11:51:44.611Z,1.08
2023-01-12T11:54:17.407Z,3.05
2023-01-12T11:59:29.322Z,2.67
2023-01-12T12:02:02.476Z,1.50
2023-01-12T12:04:48.822Z,2.45
2023-01-12T12:07:27.327Z,2.50
2023-01-12T12:10:16.249Z,3.15
2023-01-12T12:12:51.577Z,1.50
2023-01-12T12:15:30.273Z,1.55
2023-01-12T12:18:12.499Z,1.90
2023-01-12T12:20:47.821Z,3.90
2023-01-12T12:23:27.188Z,2.75
2023-01-12T12:26:07.885Z,2.58
2023-01-12T12:28:55.454Z,1.95
2023-01-12T12:31:38.817Z,2.67
2023-01-12T12:34:21.116Z,1.80
2023-01-12T12:36:55.648Z,2.70
2023-01-12T12:39:42.246Z,1.13
2023-01-12T12:42:52.947Z,1.75
2023-01-12T12:45:28.822Z,0.75
2023-01-12T12:48:14.435Z,1.52
2023-01-12T12:50:49.368Z,0.93
2023-01-12T12:53:25.498Z,1.00
2023-01-12T12:55:55.163Z,1.70
2023-01-12T12:58:31.377Z,1.58
2023-01-12T13:01:43.677Z,0.70
2023-01-12T13:04:13.846Z,0.50
2023-01-12T13:06:45.157Z,1.00
2023-01-12T13:09:40.160Z,2.13
2023-01-12T13:12:33.123Z,1.33
2023-01-12T13:15:24.607Z,0.70
2023-01-12T13:17:54.169Z,1.33
2023-01-12T13:20:39.159Z,2.22
2023-01-12T13:23:40.395Z,2.30
2023-01-12T13:26:37.488Z,1.10
2023-01-12T13:29:40.567Z,2.20
2023-01-12T13:32:34.334Z,0.82
2023-01-12T13:35:02.264Z,0.80
2023-01-12T13:37:40.404Z,1.35
2023-01-12T13:40:17.738Z,1.30
2023-01-12T13:43:04.238Z,1.38
2023-01-12T13:45:33.766Z,0.85
2023-01-12T13:48:07.210Z,2.17
2023-01-12T13:50:37.445Z,0.45
2023-01-12T13:53:05.925Z,1.55
2023-01-12T13:55:36.995Z,2.10
2023-01-12T13:58:08.097Z,1.10
2023-01-12T14:00:36.068Z,0.38
2023-01-12T14:03:05.896Z,1.60
2023-01-12T14:05:51.495Z,0.60
2023-01-12T14:08:50.591Z,0.90
2023-01-12T14:11:40.021Z,1.35
2023-01-12T14:14:44.957Z,0.50
2023-01-12T14:17:37.179Z,0.73
2023-01-12T14:20:15.484Z,1.20
2023-01-12T14:22:43.487Z,1.23
2023-01-12T14:25:20.505Z,1.20
2023-01-12T14:27:53.033Z,0.77
2023-01-12T14:30:21.784Z,0.82
2023-01-12T14:32:51.412Z,0.95
2023-01-12T14:35:22.614Z,0.70
2023-01-12T14:37:53.764Z,0.95
2023-01-12T14:40:25.022Z,0.80
2023-01-12T14:43:10.990Z,1.00
2023-01-12T14:46:02.658Z,1.27
2023-01-12T14:48:32.437Z,0.77
2023-01-12T14:51:04.131Z,1.08
2023-01-12T14:53:39.556Z,1.70
2023-01-12T14:56:10.496Z,0.80
2023-01-12T14:58:39.074Z,1.83
2023-01-12T15:01:07.380Z,1.23
2023-01-12T15:03:43.462Z,0.90
2023-01-12T15:06:16.508Z,2.00
2023-01-12T15:08:55.404Z,0.40
2023-01-12T15:11:35.942Z,1.33
2023-01-12T15:14:06.777Z,0.40
2023-01-12T15:16:52.210Z,0.77
2023-01-12T15:19:37.644Z,1.15
2023-01-12T15:22:28.317Z,0.90
2023-01-12T15:25:14.616Z,0.77
2023-01-12T15:27:42.548Z,0.98
2023-01-12T15:30:12.620Z,1.35
2023-01-12T15:32:47.612Z,1.17
2023-01-12T15:35:17.481Z,0.65
2023-01-12T15:37:46.786Z,1.30
2023-01-12T15:40:15.342Z,1.35
2023-01-12T15:42:43.262Z,1.33
2023-01-12T15:45:30.938Z,0.85
2023-01-12T15:47:58.836Z,0.95
2023-01-12T15:50:26.685Z,1.38
2023-01-12T15:52:56.817Z,1.65
2023-01-12T15:55:24.775Z,1.30
2023-01-12T15:57:52.759Z,1.80
2023-01-12T16:00:22.126Z,1.02
2023-01-12T16:02:50.887Z,0.60
2023-01-12T16:05:20.484Z,1.17
2023-01-12T16:07:48.945Z,1.25
2023-01-12T16:10:18.960Z,0.75
2023-01-12T16:12:47.895Z,1.42
2023-01-12T16:15:18.361Z,1.73
2023-01-12T16:17:46.371Z,1.35
2023-01-12T16:20:16.173Z,2.60
2023-01-12T16:22:44.576Z,2.35
2023-01-12T16:25:12.803Z,1.48
2023-01-12T16:27:42.286Z,1.77
2023-01-12T16:30:14.514Z,1.80
2023-01-12T16:32:46.505Z,1.65
2023-01-12T16:35:15.882Z,1.10
2023-01-12T16:37:46.408Z,1.13
2023-01-12T16:40:14.525Z,0.88
2023-01-12T16:42:43.699Z,1.02
2023-01-12T16:45:11.742Z,2.33
2023-01-12T16:47:39.555Z,0.82
2023-01-12T16:50:08.019Z,1.27
2023-01-12T16:52:35.914Z,0.93
2023-01-12T16:55:05.620Z,1.35
2023-01-12T16:57:34.782Z,0.80
2023-01-12T17:00:11.407Z,1.08
2023-01-12T17:02:40.877Z,1.70
2023-01-12T17:05:10.101Z,0.98
2023-01-12T17:07:37.985Z,1.75
2023-01-12T17:10:06.707Z,0.70
2023-01-12T17:12:34.932Z,1.63
2023-01-12T17:15:05.305Z,1.17
2023-01-12T17:17:33.405Z,1.10
2023-01-12T17:20:01.554Z,1.40
2023-01-12T17:22:31.509Z,0.77
2023-01-12T17:24:59.824Z,1.25
2023-01-12T17:27:27.967Z,2.08
2023-01-12T17:29:56.000Z,1.73
2023-01-12T17:32:25.399Z,1.17
2023-01-12T17:34:53.208Z,2.05
2023-01-12T17:37:21.011Z,1.17
2023-01-12T17:39:48.829Z,0.80
2023-01-12T17:42:35.838Z,1.52
2023-01-12T17:45:04.378Z,1.50
2023-01-12T17:47:33.704Z,1.25
2023-01-12T17:50:01.626Z,1.65
2023-01-12T17:52:29.512Z,1.60
2023-01-12T17:54:57.368Z,0.95
2023-01-12T17:57:26.151Z,1.55
2023-01-12T17:59:54.245Z,2.10
2023-01-12T18:02:22.065Z,2.60
2023-01-12T18:04:51.307Z,1.85
2023-01-12T18:07:19.505Z,0.90
2023-01-12T18:09:47.356Z,2.42
2023-01-12T18:12:16.417Z,2.75
2023-01-12T18:14:44.326Z,1.55
2023-01-12T18:17:12.658Z,1.10
2023-01-12T18:19:42.315Z,0.98
2023-01-12T18:22:11.840Z,1.75
2023-01-12T18:24:39.653Z,1.23
2023-01-12T18:27:07.423Z,1.10
2023-01-12T18:29:35.266Z,2.20
2023-01-12T18:32:03.131Z,2.20
2023-01-12T18:34:31.082Z,1.27
2023-01-12T18:36:58.911Z,0.90
2023-01-12T18:39:28.093Z,3.13
2023-01-12T18:42:13.366Z,1.40
2023-01-12T18:44:41.222Z,2.03
2023-01-12T18:47:26.407Z,2.00
2023-01-12T18:49:58.423Z,1.25
2023-01-12T18:52:43.535Z,1.47
2023-01-12T18:55:12.737Z,1.23
2023-01-12T18:57:40.512Z,1.30
2023-01-12T19:00:19.721Z,0.85
2023-01-12T19:02:47.719Z,0.85
2023-01-12T19:05:22.965Z,0.98
2023-01-12T19:08:26.219Z,2.47
2023-01-12T19:10:56.023Z,1.25
2023-01-12T19:13:41.224Z,1.02
2023-01-12T19:16:32.635Z,1.42
2023-01-12T19:19:00.431Z,1.05
2023-01-12T19:21:46.053Z,1.30
2023-01-12T19:24:31.499Z,2.25
2023-01-12T19:27:18.098Z,1.33
2023-01-12T19:29:46.661Z,2.45
2023-01-12T19:32:14.561Z,1.60
2023-01-12T19:34:42.447Z,1.15
2023-01-12T19:37:10.556Z,1.73
2023-01-12T19:39:59.504Z,1.67
2023-01-12T19:42:47.937Z,1.48
2023-01-12T19:45:16.026Z,0.98
2023-01-12T19:47:44.025Z,1.52
2023-01-12T19:50:13.692Z,1.88
2023-01-12T19:52:43.100Z,1.02
2023-01-12T19:55:13.777Z,1.83
2023-01-12T19:57:44.031Z,1.42
2023-01-12T20:00:16.032Z,1.00
2023-01-12T20:02:44.985Z,1.77
2023-01-12T20:05:17.197Z,1.90
2023-01-12T20:07:45.461Z,1.52
2023-01-12T20:10:13.244Z,1.70
2023-01-12T20:12:42.522Z,2.35
2023-01-12T20:15:11.679Z,1.73
2023-01-12T20:17:39.519Z,2.75
2023-01-12T20:20:09.587Z,2.47
2023-01-12T20:22:37.533Z,2.55
2023-01-12T20:25:06.414Z,2.67
2023-01-12T20:27:35.511Z,1.80
2023-01-12T20:30:06.302Z,1.20
2023-01-12T20:32:41.596Z,1.10
2023-01-12T20:35:14.526Z,1.13
2023-01-12T20:40:12.643Z,0.80
2023-01-12T20:42:41.192Z,0.95
2023-01-12T20:45:13.491Z,1.23
2023-01-12T20:47:42.198Z,1.10
2023-01-12T20:50:13.637Z,1.77
2023-01-12T20:52:42.226Z,2.53
2023-01-12T20:55:10.442Z,2.67
2023-01-12T20:57:39.773Z,2.20
2023-01-12T21:00:14.356Z,2.65
2023-01-12T21:02:42.236Z,1.70
2023-01-12T21:05:10.447Z,1.65
2023-01-12T21:07:38.705Z,1.88
2023-01-12T21:10:08.851Z,1.67
2023-01-12T21:12:36.716Z,2.35
2023-01-12T21:15:05.738Z,1.77
2023-01-12T21:17:35.940Z,1.27
2023-01-12T21:20:03.868Z,1.00
2023-01-12T21:22:31.765Z,1.40
2023-01-12T21:24:59.653Z,1.65
2023-01-12T21:27:27.680Z,1.35
2023-01-12T21:29:56.482Z,1.48
2023-01-12T21:32:26.965Z,1.33
2023-01-12T21:34:56.257Z,1.40
2023-01-12T21:37:24.108Z,1.58
2023-01-12T21:39:52.019Z,1.75
2023-01-12T21:42:37.130Z,1.55
2023-01-12T21:45:05.723Z,1.15
2023-01-12T21:47:33.487Z,1.50
2023-01-12T21:50:02.690Z,1.52
2023-01-12T21:52:33.017Z,2.55
2023-01-12T21:55:00.925Z,1.58
2023-01-12T21:57:28.694Z,2.05
2023-01-12T21:59:56.646Z,1.08
2023-01-12T22:02:24.454Z,1.13
2023-01-12T22:04:52.359Z,1.08
2023-01-12T22:07:21.491Z,1.30
2023-01-12T22:09:49.274Z,2.28
2023-01-12T22:12:17.217Z,0.70
2023-01-12T22:14:45.072Z,1.65
2023-01-12T22:17:12.878Z,0.90
2023-01-12T22:19:40.841Z,1.25
2023-01-12T22:22:08.756Z,1.08
2023-01-12T22:24:37.947Z,2.25
2023-01-12T22:27:05.733Z,0.60
2023-01-12T22:29:33.575Z,0.60
2023-01-12T22:32:01.391Z,0.52
2023-01-12T22:34:30.424Z,0.80
2023-01-12T22:36:58.216Z,0.73
2023-01-12T22:39:26.080Z,0.77
2023-01-12T22:41:55.231Z,0.88
2023-01-12T22:44:24.936Z,1.45
2023-01-12T22:46:53.635Z,0.55
2023-01-12T22:49:21.859Z,0.75
2023-01-12T22:51:50.222Z,1.75
2023-01-12T22:54:19.134Z,0.65
2023-01-12T22:56:47.213Z,0.52
2023-01-12T22:59:16.557Z,0.28
2023-01-12T23:01:44.329Z,0.60
2023-01-12T23:04:13.323Z,0.68
2023-01-12T23:06:41.812Z,0.77
2023-01-12T23:09:11.635Z,0.80
2023-01-12T23:11:39.549Z,0.57
2023-01-12T23:14:08.083Z,0.52
2023-01-12T23:16:37.245Z,0.68
2023-01-12T23:19:05.209Z,0.50
2023-01-12T23:21:33.126Z,0.73
2023-01-12T23:24:01.142Z,0.77
2023-01-12T23:26:31.175Z,1.08
2023-01-12T23:29:02.747Z,0.35
2023-01-12T23:31:33.151Z,0.47
2023-01-12T23:34:02.499Z,0.63
2023-01-12T23:36:31.878Z,0.20
2023-01-12T23:39:01.155Z,0.75
2023-01-12T23:41:30.378Z,0.47
2023-01-12T23:44:00.268Z,1.20
2023-01-12T23:46:29.374Z,0.38
2023-01-12T23:48:59.441Z,1.30
2023-01-12T23:51:30.359Z,0.57
2023-01-12T23:54:00.422Z,0.93
2023-01-12T23:56:29.835Z,0.98
2023-01-12T23:58:57.846Z,0.55
